createdAt,value
2023-05-19T00:01:00.694Z,101246.00
2023-05-19T00:03:29.286Z,101245.00
2023-05-19T00:05:59.170Z,101245.00
2023-05-19T00:08:30.688Z,101243.00
2023-05-19T00:10:59.225Z,101244.00
2023-05-19T00:13:28.347Z,101248.00
2023-05-19T00:15:56.423Z,101246.00
2023-05-19T00:18:24.193Z,101246.00
2023-05-19T00:20:52.730Z,101250.00
2023-05-19T00:23:20.804Z,101244.00
2023-05-19T00:25:48.719Z,101246.00
2023-05-19T00:28:16.526Z,101247.00
2023-05-19T00:30:44.656Z,101242.00
2023-05-19T00:33:12.644Z,101243.00
2023-05-19T00:35:41.352Z,101245.00
2023-05-19T00:38:09.352Z,101245.00
2023-05-19T00:40:37.295Z,101236.00
2023-05-19T00:43:06.024Z,101235.00
2023-05-19T00:45:33.877Z,101248.00
2023-05-19T00:48:01.728Z,101251.00
2023-05-19T00:50:29.790Z,101243.00
2023-05-19T00:52:58.333Z,101241.00
2023-05-19T00:55:29.878Z,101254.00
2023-05-19T00:57:58.335Z,101246.00
2023-05-19T01:00:26.243Z,101246.00
2023-05-19T01:02:54.597Z,101244.00
2023-05-19T01:05:22.662Z,101245.00
2023-05-19T01:07:53.760Z,101254.00
2023-05-19T01:10:21.855Z,101247.00
2023-05-19T01:12:49.966Z,101240.00
2023-05-19T01:15:17.837Z,101242.00
2023-05-19T01:18:07.583Z,101246.00
2023-05-19T01:20:52.924Z,101251.00
2023-05-19T01:24:09.248Z,101250.00
2023-05-19T01:27:01.697Z,101251.00
2023-05-19T01:30:01.394Z,101247.00
2023-05-19T01:32:30.852Z,101239.00
2023-05-19T01:34:59.470Z,101242.00
2023-05-19T01:37:29.185Z,101244.00
2023-05-19T01:39:57.919Z,101240.00
2023-05-19T01:42:26.905Z,101237.00
2023-05-19T01:44:55.990Z,101246.00
2023-05-19T01:47:24.127Z,101242.00
2023-05-19T01:49:52.631Z,101242.00
2023-05-19T01:52:20.820Z,101239.00
2023-05-19T01:54:49.765Z,101244.00
2023-05-19T01:57:50.062Z,101241.00
2023-05-19T02:00:53.330Z,101239.00
2023-05-19T02:03:48.610Z,101246.00
2023-05-19T02:06:42.556Z,101239.00
2023-05-19T02:09:21.027Z,101248.00
2023-05-19T02:12:04.477Z,101248.00
2023-05-19T02:14:42.402Z,101248.00
2023-05-19T02:17:13.872Z,101243.00
2023-05-19T02:19:43.704Z,101248.00
2023-05-19T02:22:11.867Z,101241.00
2023-05-19T02:24:39.919Z,101239.00
2023-05-19T02:27:07.997Z,101238.00
2023-05-19T02:29:36.218Z,101232.00
2023-05-19T02:32:04.193Z,101236.00
2023-05-19T02:34:31.995Z,101237.00
2023-05-19T02:36:59.887Z,101233.00
2023-05-19T02:39:29.721Z,101237.00
2023-05-19T02:41:57.809Z,101243.00
2023-05-19T02:44:26.003Z,101240.00
2023-05-19T02:46:54.132Z,101234.00
2023-05-19T02:49:22.067Z,101238.00
2023-05-19T02:51:49.845Z,101234.00
2023-05-19T02:54:17.388Z,101237.00
2023-05-19T02:56:45.208Z,101236.00
2023-05-19T02:59:13.175Z,101238.00
2023-05-19T03:01:41.046Z,101236.00
2023-05-19T03:04:09.065Z,101244.00
2023-05-19T03:06:37.000Z,101233.00
2023-05-19T03:09:04.892Z,101227.00
2023-05-19T03:11:33.700Z,101229.00
2023-05-19T03:14:02.316Z,101235.00
2023-05-19T03:16:30.717Z,101238.00
2023-05-19T03:18:59.980Z,101235.00
2023-05-19T03:21:28.121Z,101229.00
2023-05-19T03:23:55.980Z,101233.00
2023-05-19T03:26:24.740Z,101226.00
2023-05-19T03:28:52.634Z,101231.00
2023-05-19T03:31:21.183Z,101232.00
2023-05-19T03:33:49.071Z,101228.00
2023-05-19T03:36:17.879Z,101229.00
2023-05-19T03:38:45.877Z,101233.00
2023-05-19T03:41:13.792Z,101235.00
2023-05-19T03:43:41.835Z,101228.00
2023-05-19T03:46:11.002Z,101234.00
2023-05-19T03:48:41.724Z,101232.00
2023-05-19T03:51:45.022Z,101228.00
2023-05-19T03:54:27.937Z,101240.00
2023-05-19T03:56:56.140Z,101235.00
2023-05-19T03:59:24.785Z,101243.00
2023-05-19T04:05:34.998Z,101234.00
2023-05-19T04:08:03.333Z,101239.00
2023-05-19T04:10:31.219Z,101242.00
2023-05-19T04:12:59.048Z,101233.00
2023-05-19T04:15:27.628Z,101240.00
2023-05-19T04:17:56.556Z,101231.00
2023-05-19T04:20:24.183Z,101237.00
2023-05-19T04:22:52.092Z,101237.00
2023-05-19T04:25:20.482Z,101233.00
2023-05-19T04:27:49.000Z,101236.00
2023-05-19T04:30:22.791Z,101230.00
2023-05-19T04:32:51.671Z,101229.00
2023-05-19T04:35:19.882Z,101235.00
2023-05-19T04:37:48.968Z,101236.00
2023-05-19T04:40:21.585Z,101239.00
2023-05-19T04:42:49.974Z,101240.00
2023-05-19T04:45:18.737Z,101240.00
2023-05-19T04:47:49.927Z,101234.00
2023-05-19T04:50:17.685Z,101237.00
2023-05-19T04:52:48.406Z,101227.00
2023-05-19T04:55:16.356Z,101234.00
2023-05-19T04:57:45.241Z,101236.00
2023-05-19T05:00:15.100Z,101230.00
2023-05-19T05:03:08.186Z,101233.00
2023-05-19T05:05:36.132Z,101234.00
2023-05-19T05:08:04.338Z,101238.00
2023-05-19T05:10:36.841Z,101248.00
2023-05-19T05:13:04.999Z,101230.00
2023-05-19T05:15:33.287Z,101241.00
2023-05-19T05:18:03.512Z,101243.00
2023-05-19T05:20:35.123Z,101242.00
2023-05-19T05:23:03.822Z,101241.00
2023-05-19T05:25:33.992Z,101246.00
2023-05-19T05:28:05.439Z,101249.00
2023-05-19T05:30:35.885Z,101246.00
2023-05-19T05:33:05.418Z,101241.00
2023-05-19T05:35:37.604Z,101246.00
2023-05-19T05:38:07.184Z,101242.00
2023-05-19T05:40:36.057Z,101252.00
2023-05-19T05:43:05.345Z,101252.00
2023-05-19T05:45:37.452Z,101249.00
2023-05-19T05:48:06.729Z,101241.00
2023-05-19T05:50:35.017Z,101241.00
2023-05-19T05:53:04.665Z,101240.00
2023-05-19T05:55:35.476Z,101245.00
2023-05-19T05:58:03.884Z,101236.00
2023-05-19T06:00:32.059Z,101239.00
2023-05-19T06:03:00.122Z,101236.00
2023-05-19T06:05:27.993Z,101240.00
2023-05-19T06:07:57.551Z,101245.00
2023-05-19T06:10:28.931Z,101249.00
2023-05-19T06:12:56.938Z,101241.00
2023-05-19T06:15:26.418Z,101248.00
2023-05-19T06:18:08.391Z,101243.00
2023-05-19T06:20:36.213Z,101245.00
2023-05-19T06:23:04.113Z,101237.00
2023-05-19T06:25:31.868Z,101243.00
2023-05-19T06:27:59.689Z,101246.00
2023-05-19T06:30:28.660Z,101249.00
2023-05-19T06:33:17.020Z,101244.00
2023-05-19T06:35:44.359Z,101242.00
2023-05-19T06:38:12.084Z,101241.00
2023-05-19T06:40:39.827Z,101245.00
2023-05-19T06:43:07.444Z,101235.00
2023-05-19T06:45:53.263Z,101241.00
2023-05-19T06:48:21.822Z,101235.00
2023-05-19T06:50:50.960Z,101249.00
2023-05-19T06:53:23.450Z,101239.00
2023-05-19T06:55:59.557Z,101245.00
2023-05-19T06:58:31.764Z,101249.00
2023-05-19T07:01:00.654Z,101247.00
2023-05-19T07:03:33.604Z,101248.00
2023-05-19T07:06:01.445Z,101240.00
2023-05-19T07:08:30.172Z,101247.00
2023-05-19T07:11:01.115Z,101247.00
2023-05-19T07:13:29.584Z,101250.00
2023-05-19T07:15:58.167Z,101251.00
2023-05-19T07:18:32.028Z,101250.00
2023-05-19T07:21:00.181Z,101250.00
2023-05-19T07:23:28.149Z,101244.00
2023-05-19T07:25:57.408Z,101236.00
2023-05-19T07:28:26.228Z,101225.00
2023-05-19T07:30:53.927Z,101236.00
2023-05-19T07:33:21.922Z,101231.00
2023-05-19T07:35:49.880Z,101230.00
2023-05-19T07:38:17.693Z,101227.00
2023-05-19T07:40:45.495Z,101232.00
2023-05-19T07:43:13.217Z,101232.00
2023-05-19T07:45:41.186Z,101224.00
2023-05-19T07:48:09.187Z,101226.00
2023-05-19T07:50:37.453Z,101232.00
2023-05-19T07:53:05.092Z,101229.00
2023-05-19T07:55:33.459Z,101228.00
2023-05-19T07:58:01.180Z,101224.00
2023-05-19T08:00:28.933Z,101222.00
2023-05-19T08:02:57.813Z,101220.00
2023-05-19T08:05:28.596Z,101224.00
2023-05-19T08:07:57.843Z,101229.00
2023-05-19T08:10:25.717Z,101226.00
2023-05-19T08:12:53.580Z,101222.00
2023-05-19T08:15:22.147Z,101224.00
2023-05-19T08:17:53.967Z,101224.00
2023-05-19T08:20:23.512Z,101220.00
2023-05-19T08:22:51.830Z,101222.00
2023-05-19T08:25:20.076Z,101221.00
2023-05-19T08:27:48.154Z,101218.00
2023-05-19T08:30:17.021Z,101218.00
2023-05-19T08:32:45.258Z,101216.00
2023-05-19T08:35:13.999Z,101218.00
2023-05-19T08:37:41.884Z,101206.00
2023-05-19T08:40:17.831Z,101209.00
2023-05-19T08:42:46.921Z,101206.00
2023-05-19T08:45:15.612Z,101205.00
2023-05-19T08:47:48.469Z,101206.00
2023-05-19T08:50:25.265Z,101206.00
2023-05-19T08:56:11.261Z,101191.00
2023-05-19T08:58:44.495Z,101193.00
2023-05-19T09:01:18.431Z,101193.00
2023-05-19T09:03:50.182Z,101183.00
2023-05-19T09:06:18.997Z,101184.00
2023-05-19T09:08:47.486Z,101178.00
2023-05-19T09:11:18.305Z,101185.00
2023-05-19T09:13:47.412Z,101187.00
2023-05-19T09:16:16.283Z,101187.00
2023-05-19T09:18:58.515Z,101187.00
2023-05-19T09:21:33.619Z,101180.00
2023-05-19T09:24:08.846Z,101180.00
2023-05-19T09:26:42.558Z,101164.00
2023-05-19T09:29:18.471Z,101171.00
2023-05-19T09:32:06.497Z,101172.00
2023-05-19T09:34:35.058Z,101169.00
2023-05-19T09:37:02.719Z,101173.00
2023-05-19T09:39:31.069Z,101168.00
2023-05-19T09:41:59.086Z,101157.00
2023-05-19T09:44:31.576Z,101166.00
2023-05-19T09:47:00.485Z,101162.00
2023-05-19T09:49:30.836Z,101162.00
2023-05-19T09:52:01.565Z,101165.00
2023-05-19T09:54:32.614Z,101159.00
2023-05-19T09:57:02.607Z,101152.00
2023-05-19T09:59:33.687Z,101150.00
2023-05-19T10:02:03.152Z,101152.00
2023-05-19T10:04:31.837Z,101158.00
2023-05-19T10:07:01.791Z,101150.00
2023-05-19T10:09:30.222Z,101145.00
2023-05-19T10:11:59.615Z,101143.00
2023-05-19T10:14:29.397Z,101147.00
2023-05-19T10:16:59.542Z,101149.00
2023-05-19T10:19:29.528Z,101141.00
2023-05-19T10:21:57.805Z,101144.00
2023-05-19T10:24:25.672Z,101136.00
2023-05-19T10:27:09.824Z,101138.00
2023-05-19T10:29:46.337Z,101135.00
2023-05-19T10:32:26.004Z,101126.00
2023-05-19T10:35:37.878Z,101129.00
2023-05-19T10:38:40.700Z,101122.00
2023-05-19T10:41:29.319Z,101122.00
2023-05-19T10:44:18.291Z,101129.00
2023-05-19T10:46:46.708Z,101124.00
2023-05-19T10:49:24.345Z,101121.00
2023-05-19T10:51:59.268Z,101123.00
2023-05-19T10:54:46.344Z,101117.00
2023-05-19T10:57:18.250Z,101114.00
2023-05-19T10:59:46.528Z,101110.00
2023-05-19T11:02:57.260Z,101109.00
2023-05-19T11:05:31.323Z,101110.00
2023-05-19T11:08:04.824Z,101114.00
2023-05-19T11:10:32.925Z,101115.00
2023-05-19T11:13:01.304Z,101114.00
2023-05-19T11:15:29.269Z,101118.00
2023-05-19T11:17:57.696Z,101117.00
2023-05-19T11:20:28.897Z,101117.00
2023-05-19T11:23:20.272Z,101107.00
2023-05-19T11:25:48.805Z,101110.00
2023-05-19T11:28:26.234Z,101106.00
2023-05-19T11:30:58.137Z,101102.00
2023-05-19T11:33:29.493Z,101095.00
2023-05-19T11:35:58.786Z,101095.00
2023-05-19T11:38:28.572Z,101087.00
2023-05-19T11:40:57.803Z,101087.00
2023-05-19T11:43:26.848Z,101080.00
2023-05-19T11:45:56.198Z,101082.00
2023-05-19T11:48:25.714Z,101075.00
2023-05-19T11:50:53.939Z,101080.00
2023-05-19T11:53:21.737Z,101079.00
2023-05-19T11:55:50.015Z,101081.00
2023-05-19T11:58:17.901Z,101073.00
2023-05-19T12:00:48.058Z,101082.00
2023-05-19T12:03:17.641Z,101091.00
2023-05-19T12:05:49.338Z,101086.00
2023-05-19T12:08:19.328Z,101080.00
2023-05-19T12:10:51.559Z,101076.00
2023-05-19T12:13:20.507Z,101078.00
2023-05-19T12:15:48.590Z,101080.00
2023-05-19T12:18:16.973Z,101082.00
2023-05-19T12:20:46.279Z,101081.00
2023-05-19T12:23:15.650Z,101074.00
2023-05-19T12:25:43.424Z,101076.00
2023-05-19T12:28:11.858Z,101073.00
2023-05-19T12:30:40.028Z,101075.00
2023-05-19T12:33:09.990Z,101062.00
2023-05-19T12:35:38.579Z,101071.00
2023-05-19T12:38:07.505Z,101066.00
2023-05-19T12:40:36.809Z,101052.00
2023-05-19T12:43:05.784Z,101058.00
2023-05-19T12:45:37.550Z,101057.00
2023-05-19T12:48:12.801Z,101061.00
2023-05-19T12:50:40.822Z,101058.00
2023-05-19T12:53:16.666Z,101058.00
2023-05-19T12:55:46.773Z,101064.00
2023-05-19T12:58:17.036Z,101062.00
2023-05-19T13:00:49.036Z,101059.00
2023-05-19T13:03:21.253Z,101061.00
2023-05-19T13:05:51.731Z,101046.00
2023-05-19T13:08:22.257Z,101043.00
2023-05-19T13:10:50.050Z,101042.00
2023-05-19T13:13:21.132Z,101046.00
2023-05-19T13:15:49.397Z,101042.00
2023-05-19T13:18:17.977Z,101036.00
2023-05-19T13:20:47.587Z,101041.00
2023-05-19T13:23:16.815Z,101036.00
2023-05-19T13:25:53.738Z,101040.00
2023-05-19T13:28:21.626Z,101032.00
2023-05-19T13:30:49.930Z,101039.00
2023-05-19T13:33:20.660Z,101025.00
2023-05-19T13:35:49.414Z,101037.00
2023-05-19T13:38:17.690Z,101032.00
2023-05-19T13:40:46.258Z,101036.00
2023-05-19T13:43:15.431Z,101030.00
2023-05-19T13:45:44.963Z,101030.00
2023-05-19T13:48:13.597Z,101032.00
2023-05-19T13:50:41.521Z,101032.00
2023-05-19T13:53:10.201Z,101032.00
2023-05-19T13:55:38.656Z,101028.00
2023-05-19T13:58:07.086Z,101029.00
2023-05-19T14:00:37.513Z,101017.00
2023-05-19T14:03:05.616Z,101014.00
2023-05-19T14:05:35.557Z,101019.00
2023-05-19T14:08:04.073Z,101025.00
2023-05-19T14:10:32.538Z,101026.00
2023-05-19T14:13:30.250Z,101019.00
2023-05-19T14:15:52.820Z,101021.00
2023-05-19T14:18:20.709Z,101025.00
2023-05-19T14:20:48.572Z,101022.00
2023-05-19T14:23:17.515Z,101021.00
2023-05-19T14:25:45.662Z,101014.00
2023-05-19T14:28:13.538Z,101018.00
2023-05-19T14:30:41.900Z,101019.00
2023-05-19T14:33:09.727Z,101010.00
2023-05-19T14:35:37.671Z,101011.00
2023-05-19T14:38:05.603Z,101024.00
2023-05-19T14:40:33.807Z,101020.00
2023-05-19T14:43:01.752Z,101010.00
2023-05-19T14:45:30.134Z,101017.00
2023-05-19T14:52:54.692Z,101007.00
2023-05-19T14:55:22.389Z,101002.00
2023-05-19T14:57:50.550Z,101004.00
2023-05-19T15:00:19.871Z,101008.00
2023-05-19T15:02:49.825Z,101008.00
2023-05-19T15:05:17.986Z,101003.00
2023-05-19T15:07:49.012Z,101005.00
2023-05-19T15:10:20.241Z,101004.00
2023-05-19T15:12:48.300Z,101000.00
2023-05-19T15:15:18.717Z,101003.00
2023-05-19T15:17:48.324Z,100998.00
2023-05-19T15:20:16.600Z,100993.00
2023-05-19T15:22:44.950Z,100998.00
2023-05-19T15:25:12.674Z,101005.00
2023-05-19T15:27:40.544Z,101001.00
2023-05-19T15:30:08.765Z,101001.00
2023-05-19T15:32:36.797Z,100998.00
2023-05-19T15:35:04.950Z,101006.00
2023-05-19T15:37:32.427Z,101007.00
2023-05-19T15:40:00.491Z,100997.00
2023-05-19T15:42:28.529Z,100990.00
2023-05-19T15:44:56.486Z,100989.00
2023-05-19T15:47:24.240Z,100999.00
2023-05-19T15:49:52.114Z,100993.00
2023-05-19T15:52:23.180Z,100996.00
2023-05-19T15:54:51.174Z,100992.00
2023-05-19T15:57:19.134Z,100990.00
2023-05-19T15:59:47.194Z,100987.00
2023-05-19T16:02:15.802Z,100989.00
2023-05-19T16:04:43.818Z,100987.00
2023-05-19T16:07:11.626Z,100985.00
2023-05-19T16:09:39.771Z,100982.00
2023-05-19T16:12:08.385Z,100985.00
2023-05-19T16:14:37.998Z,100985.00
2023-05-19T16:17:11.829Z,100983.00
2023-05-19T16:19:42.830Z,100984.00
2023-05-19T16:22:10.528Z,100980.00
2023-05-19T16:24:38.638Z,100983.00
2023-05-19T16:27:06.458Z,100972.00
2023-05-19T16:29:34.191Z,100982.00
2023-05-19T16:32:02.510Z,100978.00
2023-05-19T16:34:30.755Z,100978.00
2023-05-19T16:36:58.478Z,100978.00
2023-05-19T16:39:26.196Z,100979.00
2023-05-19T16:41:53.906Z,100972.00
2023-05-19T16:44:21.567Z,100979.00
2023-05-19T16:46:49.593Z,100986.00
2023-05-19T16:49:17.433Z,100984.00
2023-05-19T16:51:46.738Z,100981.00
2023-05-19T16:54:15.585Z,100980.00
2023-05-19T16:56:43.070Z,100977.00
2023-05-19T16:59:10.944Z,100977.00
2023-05-19T17:01:38.895Z,100979.00
2023-05-19T17:04:06.346Z,100978.00
2023-05-19T17:06:34.234Z,100974.00
2023-05-19T17:09:02.338Z,100968.00
2023-05-19T17:11:30.294Z,100973.00
2023-05-19T17:14:02.299Z,100973.00
2023-05-19T17:16:30.050Z,100962.00
2023-05-19T17:18:57.827Z,100962.00
2023-05-19T17:21:25.301Z,100965.00
2023-05-19T17:23:53.414Z,100959.00
2023-05-19T17:26:22.448Z,100967.00
2023-05-19T17:28:52.752Z,100970.00
2023-05-19T17:31:20.433Z,100973.00
2023-05-19T17:33:48.417Z,100974.00
2023-05-19T17:36:18.756Z,100963.00
2023-05-19T17:38:46.611Z,100968.00
2023-05-19T17:41:14.615Z,100969.00
2023-05-19T17:43:44.324Z,100968.00
2023-05-19T17:46:12.460Z,100972.00
2023-05-19T17:48:40.267Z,100972.00
2023-05-19T17:51:07.927Z,100973.00
2023-05-19T17:53:36.065Z,100974.00
2023-05-19T17:56:12.324Z,100971.00
2023-05-19T17:58:41.620Z,100977.00
2023-05-19T18:01:09.905Z,100974.00
2023-05-19T18:03:38.453Z,100974.00
2023-05-19T18:06:07.288Z,100975.00
2023-05-19T18:08:37.218Z,100975.00
2023-05-19T18:11:05.502Z,100963.00
2023-05-19T18:13:33.417Z,100968.00
2023-05-19T18:16:01.166Z,100970.00
2023-05-19T18:18:29.296Z,100962.00
2023-05-19T18:20:57.260Z,100969.00
2023-05-19T18:23:25.144Z,100968.00
2023-05-19T18:25:53.881Z,100965.00
2023-05-19T18:28:22.363Z,100961.00
2023-05-19T18:31:00.964Z,100957.00
2023-05-19T18:33:31.037Z,100971.00
2023-05-19T18:35:59.998Z,100963.00
2023-05-19T18:38:30.121Z,100962.00
2023-05-19T18:40:58.484Z,100963.00
2023-05-19T18:43:26.499Z,100968.00
2023-05-19T18:45:54.433Z,100969.00
2023-05-19T18:48:22.970Z,100975.00
2023-05-19T18:50:51.593Z,100979.00
2023-05-19T18:53:21.059Z,100973.00
2023-05-19T18:55:49.015Z,100973.00
2023-05-19T18:58:19.729Z,100973.00
2023-05-19T19:00:47.952Z,100976.00
2023-05-19T19:03:19.985Z,100980.00
2023-05-19T19:05:55.848Z,100985.00
2023-05-19T19:08:24.136Z,100985.00
2023-05-19T19:10:52.411Z,100988.00
2023-05-19T19:13:20.178Z,100994.00
2023-05-19T19:15:47.952Z,101004.00
2023-05-19T19:18:16.700Z,100991.00
2023-05-19T19:20:44.852Z,100988.00
2023-05-19T19:23:13.813Z,100993.00
2023-05-19T19:25:41.459Z,100985.00
2023-05-19T19:28:09.680Z,100994.00
2023-05-19T19:30:37.196Z,101006.00
2023-05-19T19:33:06.651Z,100998.00
2023-05-19T19:35:35.330Z,101007.00
2023-05-19T19:38:03.588Z,101015.00
2023-05-19T19:40:33.068Z,101017.00
2023-05-19T19:43:00.830Z,101024.00
2023-05-19T19:45:28.714Z,101016.00
2023-05-19T19:47:57.144Z,101019.00
2023-05-19T19:50:25.125Z,101015.00
2023-05-19T19:52:53.133Z,101020.00
2023-05-19T19:55:21.416Z,101024.00
2023-05-19T19:57:52.900Z,101020.00
2023-05-19T20:00:21.082Z,101020.00
2023-05-19T20:03:03.656Z,101026.00
2023-05-19T20:05:33.767Z,101027.00
2023-05-19T20:08:02.049Z,101029.00
2023-05-19T20:10:31.934Z,101028.00
2023-05-19T20:13:00.198Z,101037.00
2023-05-19T20:15:32.036Z,101033.00
2023-05-19T20:18:00.543Z,101043.00
2023-05-19T20:20:28.841Z,101047.00
2023-05-19T20:22:57.226Z,101049.00
2023-05-19T20:25:32.704Z,101045.00
2023-05-19T20:28:02.773Z,101050.00
2023-05-19T20:30:30.720Z,101049.00
2023-05-19T20:32:58.963Z,101050.00
2023-05-19T20:35:27.805Z,101047.00
2023-05-19T20:37:58.386Z,101051.00
2023-05-19T20:40:26.007Z,101046.00
2023-05-19T20:42:53.919Z,101039.00
2023-05-19T20:45:22.102Z,101044.00
2023-05-19T20:47:50.428Z,101056.00
2023-05-19T20:50:18.421Z,101049.00
2023-05-19T20:52:49.104Z,101059.00
2023-05-19T20:55:17.419Z,101052.00
2023-05-19T20:57:45.248Z,101053.00
2023-05-19T21:00:13.850Z,101052.00
2023-05-19T21:02:45.108Z,101062.00
2023-05-19T21:05:13.097Z,101052.00
2023-05-19T21:07:40.844Z,101059.00
2023-05-19T21:10:09.202Z,101059.00
2023-05-19T21:12:37.474Z,101065.00
2023-05-19T21:15:06.468Z,101058.00
2023-05-19T21:17:34.630Z,101056.00
2023-05-19T21:20:03.426Z,101065.00
2023-05-19T21:22:31.402Z,101065.00
2023-05-19T21:24:59.321Z,101064.00
2023-05-19T21:27:27.647Z,101064.00
2023-05-19T21:29:56.198Z,101064.00
2023-05-19T21:32:24.320Z,101071.00
2023-05-19T21:34:52.438Z,101070.00
2023-05-19T21:37:21.907Z,101071.00
2023-05-19T21:39:49.929Z,101069.00
2023-05-19T21:42:18.163Z,101062.00
2023-05-19T21:44:46.123Z,101060.00
2023-05-19T21:47:15.375Z,101067.00
2023-05-19T21:49:43.271Z,101072.00
2023-05-19T21:52:11.230Z,101075.00
2023-05-19T21:54:39.083Z,101072.00
2023-05-19T21:57:07.042Z,101077.00
2023-05-19T21:59:35.120Z,101070.00
2023-05-19T22:02:03.265Z,101075.00
2023-05-19T22:04:34.112Z,101071.00
2023-05-19T22:07:02.244Z,101077.00
2023-05-19T22:09:29.855Z,101078.00
2023-05-19T22:11:59.423Z,101084.00
2023-05-19T22:14:27.408Z,101083.00
2023-05-19T22:16:55.511Z,101084.00
2023-05-19T22:19:23.895Z,101079.00
2023-05-19T22:22:02.003Z,101082.00
2023-05-19T22:24:37.638Z,101080.00
2023-05-19T22:27:08.390Z,101079.00
2023-05-19T22:29:39.042Z,101073.00
2023-05-19T22:32:12.171Z,101076.00
2023-05-19T22:34:40.048Z,101075.00
2023-05-19T22:37:07.886Z,101082.00
2023-05-19T22:39:35.985Z,101078.00
2023-05-19T22:42:03.622Z,101078.00
2023-05-19T22:44:32.108Z,101074.00
2023-05-19T22:47:00.130Z,101074.00
2023-05-19T22:49:32.525Z,101075.00
2023-05-19T22:52:00.412Z,101082.00
2023-05-19T22:54:28.340Z,101077.00
2023-05-19T22:56:56.359Z,101080.00
2023-05-19T22:59:24.228Z,101082.00
2023-05-19T23:01:58.182Z,101082.00
2023-05-19T23:04:26.647Z,101085.00
2023-05-19T23:06:54.431Z,101074.00
2023-05-19T23:09:24.604Z,101074.00
2023-05-19T23:11:52.708Z,101067.00
2023-05-19T23:14:22.122Z,101071.00
2023-05-19T23:16:50.820Z,101070.00
2023-05-19T23:19:20.662Z,101070.00
2023-05-19T23:21:49.505Z,101070.00
2023-05-19T23:24:17.186Z,101072.00
2023-05-19T23:26:45.204Z,101075.00
2023-05-19T23:29:13.710Z,101077.00
2023-05-19T23:31:41.983Z,101072.00
2023-05-19T23:34:10.031Z,101078.00
2023-05-19T23:36:37.726Z,101076.00
2023-05-19T23:39:05.415Z,101072.00
2023-05-19T23:41:33.317Z,101079.00
2023-05-19T23:44:01.399Z,101073.00
2023-05-19T23:46:29.527Z,101071.00
2023-05-19T23:48:57.899Z,101076.00
2023-05-19T23:51:25.774Z,101077.00
2023-05-19T23:53:54.597Z,101076.00
2023-05-19T23:56:22.792Z,101077.00
2023-05-19T23:58:50.666Z,101077.00
